sensor_id;sensor_type;location;lat;lon;timestamp;temperature;humidity
41592;DHT22;28026;48.562;14.440;2022-09-13T00:02:20;11.60;99.90
41592;DHT22;28026;48.562;14.440;2022-09-13T00:04:51;11.60;99.90
41592;DHT22;28026;48.562;14.440;2022-09-13T00:07:22;11.60;99.90
41592;DHT22;28026;48.562;14.440;2022-09-13T00:09:53;11.60;99.90
41592;DHT22;28026;48.562;14.440;2022-09-13T00:12:23;11.60;99.90
41592;DHT22;28026;48.562;14.440;2022-09-13T00:14:54;11.60;99.90
41592;DHT22;28026;48.562;14.440;2022-09-13T00:17:25;11.50;99.90
41592;DHT22;28026;48.562;14.440;2022-09-13T00:19:56;11.50;99.90
41592;DHT22;28026;48.562;14.440;2022-09-13T00:22:27;11.50;99.90
41592;DHT22;28026;48.562;14.440;2022-09-13T00:24:58;11.50;99.90
41592;DHT22;28026;48.562;14.440;2022-09-13T00:27:29;11.50;99.90
41592;DHT22;28026;48.562;14.440;2022-09-13T00:30:03;11.50;99.90
41592;DHT22;28026;48.562;14.440;2022-09-13T00:32:36;11.50;99.90
41592;DHT22;28026;48.562;14.440;2022-09-13T00:35:07;11.40;99.90
41592;DHT22;28026;48.562;14.440;2022-09-13T00:37:39;11.40;99.90
41592;DHT22;28026;48.562;14.440;2022-09-13T00:40:10;11.40;99.90
41592;DHT22;28026;48.562;14.440;2022-09-13T00:42:40;11.40;99.90
41592;DHT22;28026;48.562;14.440;2022-09-13T00:47:58;11.30;99.90
41592;DHT22;28026;48.562;14.440;2022-09-13T00:50:38;11.20;99.90
41592;DHT22;28026;48.562;14.440;2022-09-13T00:53:18;11.20;99.90
41592;DHT22;28026;48.562;14.440;2022-09-13T00:56:01;11.20;99.90
41592;DHT22;28026;48.562;14.440;2022-09-13T00:58:59;11.10;99.90
41592;DHT22;28026;48.562;14.440;2022-09-13T01:01:39;11.10;99.90
41592;DHT22;28026;48.562;14.440;2022-09-13T01:04:17;11.10;99.90
41592;DHT22;28026;48.562;14.440;2022-09-13T01:06:55;11.10;99.90
41592;DHT22;28026;48.562;14.440;2022-09-13T01:09:31;11.00;99.90
41592;DHT22;28026;48.562;14.440;2022-09-13T01:15:03;10.90;99.90
41592;DHT22;28026;48.562;14.440;2022-09-13T01:17:36;10.80;99.90
41592;DHT22;28026;48.562;14.440;2022-09-13T01:20:08;10.80;99.90
41592;DHT22;28026;48.562;14.440;2022-09-13T01:38:05;10.80;99.90
41592;DHT22;28026;48.562;14.440;2022-09-13T01:44:23;10.90;99.90
41592;DHT22;28026;48.562;14.440;2022-09-13T01:50:56;10.80;99.90
41592;DHT22;28026;48.562;14.440;2022-09-13T01:53:17;10.80;99.90
41592;DHT22;28026;48.562;14.440;2022-09-13T01:59:04;10.70;99.90
41592;DHT22;28026;48.562;14.440;2022-09-13T02:01:56;10.60;99.90
41592;DHT22;28026;48.562;14.440;2022-09-13T02:04:34;10.70;99.90
41592;DHT22;28026;48.562;14.440;2022-09-13T02:07:16;10.70;99.90
41592;DHT22;28026;48.562;14.440;2022-09-13T02:09:56;10.70;99.90
41592;DHT22;28026;48.562;14.440;2022-09-13T02:12:39;10.70;99.90
41592;DHT22;28026;48.562;14.440;2022-09-13T02:15:15;10.60;99.90
41592;DHT22;28026;48.562;14.440;2022-09-13T02:18:03;10.40;99.90
41592;DHT22;28026;48.562;14.440;2022-09-13T02:20:42;10.40;99.90
41592;DHT22;28026;48.562;14.440;2022-09-13T02:23:36;10.30;99.90
41592;DHT22;28026;48.562;14.440;2022-09-13T02:26:14;10.40;99.90
41592;DHT22;28026;48.562;14.440;2022-09-13T02:28:49;10.40;99.90
41592;DHT22;28026;48.562;14.440;2022-09-13T02:31:25;10.40;99.90
41592;DHT22;28026;48.562;14.440;2022-09-13T02:34:11;10.40;99.90
41592;DHT22;28026;48.562;14.440;2022-09-13T02:36:55;10.30;99.90
41592;DHT22;28026;48.562;14.440;2022-09-13T02:39:28;10.20;99.90
41592;DHT22;28026;48.562;14.440;2022-09-13T02:44:52;10.30;99.90
41592;DHT22;28026;48.562;14.440;2022-09-13T02:55:51;10.10;99.90
41592;DHT22;28026;48.562;14.440;2022-09-13T02:58:55;10.00;99.90
41592;DHT22;28026;48.562;14.440;2022-09-13T03:01:34;10.10;99.90
41592;DHT22;28026;48.562;14.440;2022-09-13T03:04:08;10.20;99.90
41592;DHT22;28026;48.562;14.440;2022-09-13T03:06:39;10.20;99.90
41592;DHT22;28026;48.562;14.440;2022-09-13T03:09:11;10.30;99.90
41592;DHT22;28026;48.562;14.440;2022-09-13T03:21:06;10.30;99.90
41592;DHT22;28026;48.562;14.440;2022-09-13T03:23:52;10.20;99.90
41592;DHT22;28026;48.562;14.440;2022-09-13T03:41:16;10.10;99.90
41592;DHT22;28026;48.562;14.440;2022-09-13T03:43:55;10.10;99.90
41592;DHT22;28026;48.562;14.440;2022-09-13T03:46:40;10.10;99.90
41592;DHT22;28026;48.562;14.440;2022-09-13T03:49:16;10.20;99.90
41592;DHT22;28026;48.562;14.440;2022-09-13T03:51:52;10.10;99.90
41592;DHT22;28026;48.562;14.440;2022-09-13T03:54:28;10.10;99.90
41592;DHT22;28026;48.562;14.440;2022-09-13T03:59:36;10.00;99.90
41592;DHT22;28026;48.562;14.440;2022-09-13T04:02:10;10.00;99.90
41592;DHT22;28026;48.562;14.440;2022-09-13T04:04:43;10.00;99.90
41592;DHT22;28026;48.562;14.440;2022-09-13T04:07:16;9.90;99.90
41592;DHT22;28026;48.562;14.440;2022-09-13T04:09:49;9.90;99.90
41592;DHT22;28026;48.562;14.440;2022-09-13T04:12:20;9.90;99.90
41592;DHT22;28026;48.562;14.440;2022-09-13T04:14:51;9.90;99.90
41592;DHT22;28026;48.562;14.440;2022-09-13T04:17:22;9.90;99.90
41592;DHT22;28026;48.562;14.440;2022-09-13T04:19:53;9.90;99.90
41592;DHT22;28026;48.562;14.440;2022-09-13T04:22:23;9.90;99.90
41592;DHT22;28026;48.562;14.440;2022-09-13T04:24:54;10.00;99.90
41592;DHT22;28026;48.562;14.440;2022-09-13T04:27:25;9.90;99.90
41592;DHT22;28026;48.562;14.440;2022-09-13T04:29:56;10.00;99.90
41592;DHT22;28026;48.562;14.440;2022-09-13T04:32:27;10.00;99.90
41592;DHT22;28026;48.562;14.440;2022-09-13T04:34:58;10.00;99.90
41592;DHT22;28026;48.562;14.440;2022-09-13T04:37:29;9.90;99.90
41592;DHT22;28026;48.562;14.440;2022-09-13T04:40:00;9.60;99.90
41592;DHT22;28026;48.562;14.440;2022-09-13T04:42:31;9.60;99.90
41592;DHT22;28026;48.562;14.440;2022-09-13T04:45:02;9.70;99.90
41592;DHT22;28026;48.562;14.440;2022-09-13T04:47:34;9.70;99.90
41592;DHT22;28026;48.562;14.440;2022-09-13T04:50:04;9.80;99.90
41592;DHT22;28026;48.562;14.440;2022-09-13T04:52:36;9.80;99.90
41592;DHT22;28026;48.562;14.440;2022-09-13T04:55:07;9.90;99.90
41592;DHT22;28026;48.562;14.440;2022-09-13T04:57:38;10.00;99.90
41592;DHT22;28026;48.562;14.440;2022-09-13T05:00:09;9.80;99.90
41592;DHT22;28026;48.562;14.440;2022-09-13T05:02:40;9.80;99.90
41592;DHT22;28026;48.562;14.440;2022-09-13T05:05:11;9.80;99.90
41592;DHT22;28026;48.562;14.440;2022-09-13T05:07:42;9.90;99.90
41592;DHT22;28026;48.562;14.440;2022-09-13T05:10:13;10.00;99.90
41592;DHT22;28026;48.562;14.440;2022-09-13T05:12:44;10.10;99.90
41592;DHT22;28026;48.562;14.440;2022-09-13T05:15:15;10.20;99.90
41592;DHT22;28026;48.562;14.440;2022-09-13T05:17:46;10.30;99.90
41592;DHT22;28026;48.562;14.440;2022-09-13T05:20:16;10.30;99.90
41592;DHT22;28026;48.562;14.440;2022-09-13T05:22:47;10.40;99.90
41592;DHT22;28026;48.562;14.440;2022-09-13T05:25:18;10.50;99.90
41592;DHT22;28026;48.562;14.440;2022-09-13T05:27:49;10.60;99.90
41592;DHT22;28026;48.562;14.440;2022-09-13T05:30:20;10.70;99.90
41592;DHT22;28026;48.562;14.440;2022-09-13T05:32:50;10.70;99.90
41592;DHT22;28026;48.562;14.440;2022-09-13T05:35:21;10.70;99.90
41592;DHT22;28026;48.562;14.440;2022-09-13T05:37:52;10.80;99.90
41592;DHT22;28026;48.562;14.440;2022-09-13T05:40:23;10.50;99.90
41592;DHT22;28026;48.562;14.440;2022-09-13T05:42:53;10.20;99.90
41592;DHT22;28026;48.562;14.440;2022-09-13T05:45:24;10.60;99.90
41592;DHT22;28026;48.562;14.440;2022-09-13T05:47:55;10.80;99.90
41592;DHT22;28026;48.562;14.440;2022-09-13T05:50:26;11.00;99.90
41592;DHT22;28026;48.562;14.440;2022-09-13T05:52:57;11.20;99.90
41592;DHT22;28026;48.562;14.440;2022-09-13T05:55:28;11.20;99.90
41592;DHT22;28026;48.562;14.440;2022-09-13T05:58:00;11.20;99.90
41592;DHT22;28026;48.562;14.440;2022-09-13T06:00:32;11.30;99.90
41592;DHT22;28026;48.562;14.440;2022-09-13T06:03:03;11.70;99.90
41592;DHT22;28026;48.562;14.440;2022-09-13T06:05:34;11.80;99.90
41592;DHT22;28026;48.562;14.440;2022-09-13T06:08:04;12.10;99.90
41592;DHT22;28026;48.562;14.440;2022-09-13T06:10:35;12.10;99.90
41592;DHT22;28026;48.562;14.440;2022-09-13T06:13:06;12.20;99.90
41592;DHT22;28026;48.562;14.440;2022-09-13T06:15:37;12.40;99.90
41592;DHT22;28026;48.562;14.440;2022-09-13T06:18:08;12.50;99.90
41592;DHT22;28026;48.562;14.440;2022-09-13T06:20:38;12.40;99.90
41592;DHT22;28026;48.562;14.440;2022-09-13T06:23:09;12.40;99.90
41592;DHT22;28026;48.562;14.440;2022-09-13T06:25:40;12.70;99.90
41592;DHT22;28026;48.562;14.440;2022-09-13T06:28:12;13.10;99.90
41592;DHT22;28026;48.562;14.440;2022-09-13T06:30:43;13.60;99.90
41592;DHT22;28026;48.562;14.440;2022-09-13T06:33:14;13.80;99.90
41592;DHT22;28026;48.562;14.440;2022-09-13T06:35:44;13.50;99.90
41592;DHT22;28026;48.562;14.440;2022-09-13T06:38:15;13.90;99.90
41592;DHT22;28026;48.562;14.440;2022-09-13T06:40:46;14.40;99.90
41592;DHT22;28026;48.562;14.440;2022-09-13T06:43:17;14.80;99.90
41592;DHT22;28026;48.562;14.440;2022-09-13T06:45:48;15.20;99.90
41592;DHT22;28026;48.562;14.440;2022-09-13T06:48:19;15.50;99.90
41592;DHT22;28026;48.562;14.440;2022-09-13T06:50:50;15.20;99.90
41592;DHT22;28026;48.562;14.440;2022-09-13T06:53:20;15.00;99.90
41592;DHT22;28026;48.562;14.440;2022-09-13T06:56:01;15.10;99.90
41592;DHT22;28026;48.562;14.440;2022-09-13T06:58:37;15.40;99.90
41592;DHT22;28026;48.562;14.440;2022-09-13T07:03:51;15.90;99.90
41592;DHT22;28026;48.562;14.440;2022-09-13T07:06:28;15.80;99.90
41592;DHT22;28026;48.562;14.440;2022-09-13T07:09:02;15.70;99.90
41592;DHT22;28026;48.562;14.440;2022-09-13T07:11:37;15.90;99.90
41592;DHT22;28026;48.562;14.440;2022-09-13T07:14:12;16.10;99.90
41592;DHT22;28026;48.562;14.440;2022-09-13T07:16:49;15.90;99.90
41592;DHT22;28026;48.562;14.440;2022-09-13T07:19:22;15.60;99.90
41592;DHT22;28026;48.562;14.440;2022-09-13T07:21:58;15.30;99.90
41592;DHT22;28026;48.562;14.440;2022-09-13T07:24:29;15.30;99.90
41592;DHT22;28026;48.562;14.440;2022-09-13T07:27:00;15.70;99.90
41592;DHT22;28026;48.562;14.440;2022-09-13T07:29:30;15.90;99.90
41592;DHT22;28026;48.562;14.440;2022-09-13T07:32:01;15.80;99.90
41592;DHT22;28026;48.562;14.440;2022-09-13T07:34:32;16.10;99.90
41592;DHT22;28026;48.562;14.440;2022-09-13T07:37:03;16.40;99.90
41592;DHT22;28026;48.562;14.440;2022-09-13T07:39:34;16.90;99.90
41592;DHT22;28026;48.562;14.440;2022-09-13T07:42:05;17.10;99.90
41592;DHT22;28026;48.562;14.440;2022-09-13T07:44:35;17.00;99.90
41592;DHT22;28026;48.562;14.440;2022-09-13T07:47:06;16.50;99.90
41592;DHT22;28026;48.562;14.440;2022-09-13T07:49:37;16.60;99.90
41592;DHT22;28026;48.562;14.440;2022-09-13T07:52:08;16.60;99.90
41592;DHT22;28026;48.562;14.440;2022-09-13T07:54:38;16.70;99.90
41592;DHT22;28026;48.562;14.440;2022-09-13T07:57:09;17.00;99.90
41592;DHT22;28026;48.562;14.440;2022-09-13T07:59:40;16.90;99.90
41592;DHT22;28026;48.562;14.440;2022-09-13T08:02:11;16.90;99.90
41592;DHT22;28026;48.562;14.440;2022-09-13T08:04:42;17.20;99.90
41592;DHT22;28026;48.562;14.440;2022-09-13T08:07:13;17.00;99.90
41592;DHT22;28026;48.562;14.440;2022-09-13T08:09:44;16.80;99.90
41592;DHT22;28026;48.562;14.440;2022-09-13T08:12:15;16.80;99.90
41592;DHT22;28026;48.562;14.440;2022-09-13T08:14:45;17.40;99.90
41592;DHT22;28026;48.562;14.440;2022-09-13T08:17:16;17.40;99.90
41592;DHT22;28026;48.562;14.440;2022-09-13T08:19:47;17.50;99.90
41592;DHT22;28026;48.562;14.440;2022-09-13T08:22:18;18.00;99.90
41592;DHT22;28026;48.562;14.440;2022-09-13T08:24:49;17.50;99.90
41592;DHT22;28026;48.562;14.440;2022-09-13T08:27:20;18.00;99.90
41592;DHT22;28026;48.562;14.440;2022-09-13T08:29:50;18.40;99.90
41592;DHT22;28026;48.562;14.440;2022-09-13T08:32:21;18.50;99.90
41592;DHT22;28026;48.562;14.440;2022-09-13T08:34:52;18.60;99.90
41592;DHT22;28026;48.562;14.440;2022-09-13T08:37:23;18.90;99.90
41592;DHT22;28026;48.562;14.440;2022-09-13T08:39:54;18.70;99.90
41592;DHT22;28026;48.562;14.440;2022-09-13T08:45:50;18.80;99.90
41592;DHT22;28026;48.562;14.440;2022-09-13T08:48:35;18.60;99.90
41592;DHT22;28026;48.562;14.440;2022-09-13T08:51:21;18.60;99.90
41592;DHT22;28026;48.562;14.440;2022-09-13T08:54:02;18.70;99.90
41592;DHT22;28026;48.562;14.440;2022-09-13T08:56:50;18.80;99.90
41592;DHT22;28026;48.562;14.440;2022-09-13T09:05:53;18.60;99.90
41592;DHT22;28026;48.562;14.440;2022-09-13T09:08:27;19.30;99.90
41592;DHT22;28026;48.562;14.440;2022-09-13T09:11:08;19.40;99.90
41592;DHT22;28026;48.562;14.440;2022-09-13T09:14:31;19.60;99.90
41592;DHT22;28026;48.562;14.440;2022-09-13T09:17:16;19.80;99.90
41592;DHT22;28026;48.562;14.440;2022-09-13T09:22:43;20.10;99.90
41592;DHT22;28026;48.562;14.440;2022-09-13T09:25:16;20.10;99.90
41592;DHT22;28026;48.562;14.440;2022-09-13T09:27:50;19.90;99.90
41592;DHT22;28026;48.562;14.440;2022-09-13T09:30:23;20.10;99.90
41592;DHT22;28026;48.562;14.440;2022-09-13T09:33:24;20.00;99.90
41592;DHT22;28026;48.562;14.440;2022-09-13T09:38:53;20.70;99.90
41592;DHT22;28026;48.562;14.440;2022-09-13T09:41:26;20.70;99.90
41592;DHT22;28026;48.562;14.440;2022-09-13T09:46:56;21.40;99.90
41592;DHT22;28026;48.562;14.440;2022-09-13T09:56:04;20.90;99.90
41592;DHT22;28026;48.562;14.440;2022-09-13T09:58:45;20.80;99.90
41592;DHT22;28026;48.562;14.440;2022-09-13T10:01:24;21.00;99.90
41592;DHT22;28026;48.562;14.440;2022-09-13T10:06:38;21.90;99.90
41592;DHT22;28026;48.562;14.440;2022-09-13T10:14:44;21.40;99.90
41592;DHT22;28026;48.562;14.440;2022-09-13T10:17:19;20.70;99.90
41592;DHT22;28026;48.562;14.440;2022-09-13T10:22:31;21.90;99.90
41592;DHT22;28026;48.562;14.440;2022-09-13T10:25:13;21.90;99.90
41592;DHT22;28026;48.562;14.440;2022-09-13T10:27:57;22.70;99.90
41592;DHT22;28026;48.562;14.440;2022-09-13T10:33:06;22.00;99.90
41592;DHT22;28026;48.562;14.440;2022-09-13T10:36:12;22.00;99.90
41592;DHT22;28026;48.562;14.440;2022-09-13T10:41:38;21.70;99.90
41592;DHT22;28026;48.562;14.440;2022-09-13T10:44:25;21.50;99.90
41592;DHT22;28026;48.562;14.440;2022-09-13T10:47:22;21.00;99.90
41592;DHT22;28026;48.562;14.440;2022-09-13T10:50:11;21.00;99.90
41592;DHT22;28026;48.562;14.440;2022-09-13T10:52:51;21.60;99.90
41592;DHT22;28026;48.562;14.440;2022-09-13T10:55:36;20.70;99.90
41592;DHT22;28026;48.562;14.440;2022-09-13T11:07:03;21.20;99.90
41592;DHT22;28026;48.562;14.440;2022-09-13T11:12:41;21.30;99.90
41592;DHT22;28026;48.562;14.440;2022-09-13T11:15:29;21.10;99.90
41592;DHT22;28026;48.562;14.440;2022-09-13T11:27:22;20.90;99.90
41592;DHT22;28026;48.562;14.440;2022-09-13T11:30:20;21.40;99.90
41592;DHT22;28026;48.562;14.440;2022-09-13T11:44:45;21.00;99.90
41592;DHT22;28026;48.562;14.440;2022-09-13T11:50:37;22.30;99.90
41592;DHT22;28026;48.562;14.440;2022-09-13T11:56:26;23.90;99.90
41592;DHT22;28026;48.562;14.440;2022-09-13T11:59:14;23.00;99.90
41592;DHT22;28026;48.562;14.440;2022-09-13T12:02:04;22.30;99.90
41592;DHT22;28026;48.562;14.440;2022-09-13T12:04:50;23.00;99.90
41592;DHT22;28026;48.562;14.440;2022-09-13T12:07:33;22.90;99.90
41592;DHT22;28026;48.562;14.440;2022-09-13T12:10:17;23.80;99.90
41592;DHT22;28026;48.562;14.440;2022-09-13T12:12:55;24.40;99.90
41592;DHT22;28026;48.562;14.440;2022-09-13T12:15:40;25.10;99.90
41592;DHT22;28026;48.562;14.440;2022-09-13T12:21:09;23.20;99.90
41592;DHT22;28026;48.562;14.440;2022-09-13T12:29:43;22.40;99.90
41592;DHT22;28026;48.562;14.440;2022-09-13T12:32:20;22.40;99.90
41592;DHT22;28026;48.562;14.440;2022-09-13T12:49:28;20.90;99.90
41592;DHT22;28026;48.562;14.440;2022-09-13T12:52:39;21.00;99.90
41592;DHT22;28026;48.562;14.440;2022-09-13T12:55:51;20.70;99.90
41592;DHT22;28026;48.562;14.440;2022-09-13T13:01:55;20.00;99.90
41592;DHT22;28026;48.562;14.440;2022-09-13T13:04:28;19.70;99.90
41592;DHT22;28026;48.562;14.440;2022-09-13T13:07:05;19.70;99.90
41592;DHT22;28026;48.562;14.440;2022-09-13T13:09:51;19.60;99.90
41592;DHT22;28026;48.562;14.440;2022-09-13T13:15:07;19.90;99.90
41592;DHT22;28026;48.562;14.440;2022-09-13T13:17:56;20.00;99.90
41592;DHT22;28026;48.562;14.440;2022-09-13T13:29:30;19.90;99.90
41592;DHT22;28026;48.562;14.440;2022-09-13T13:32:09;19.90;99.90
41592;DHT22;28026;48.562;14.440;2022-09-13T13:34:45;20.00;99.90
41592;DHT22;28026;48.562;14.440;2022-09-13T13:40:11;19.90;99.90
41592;DHT22;28026;48.562;14.440;2022-09-13T13:46:22;19.60;99.90
41592;DHT22;28026;48.562;14.440;2022-09-13T13:48:58;19.40;99.90
41592;DHT22;28026;48.562;14.440;2022-09-13T13:57:31;19.20;99.90
41592;DHT22;28026;48.562;14.440;2022-09-13T14:00:20;19.00;99.90
41592;DHT22;28026;48.562;14.440;2022-09-13T14:05:53;19.30;99.90
41592;DHT22;28026;48.562;14.440;2022-09-13T14:08:34;19.30;99.90
41592;DHT22;28026;48.562;14.440;2022-09-13T14:20:31;18.60;99.90
41592;DHT22;28026;48.562;14.440;2022-09-13T14:23:15;18.50;99.90
41592;DHT22;28026;48.562;14.440;2022-09-13T14:25:52;18.60;99.90
41592;DHT22;28026;48.562;14.440;2022-09-13T14:28:26;18.70;99.90
41592;DHT22;28026;48.562;14.440;2022-09-13T14:30:58;18.80;99.90
41592;DHT22;28026;48.562;14.440;2022-09-13T14:33:31;18.90;99.90
41592;DHT22;28026;48.562;14.440;2022-09-13T14:36:06;18.80;99.90
41592;DHT22;28026;48.562;14.440;2022-09-13T14:38:50;18.90;99.90
41592;DHT22;28026;48.562;14.440;2022-09-13T14:41:31;19.00;99.90
41592;DHT22;28026;48.562;14.440;2022-09-13T14:44:13;19.20;99.90
41592;DHT22;28026;48.562;14.440;2022-09-13T14:49:57;19.30;99.90
41592;DHT22;28026;48.562;14.440;2022-09-13T14:52:35;19.60;99.90
41592;DHT22;28026;48.562;14.440;2022-09-13T14:55:24;19.50;99.90
41592;DHT22;28026;48.562;14.440;2022-09-13T14:58:06;19.40;99.90
41592;DHT22;28026;48.562;14.440;2022-09-13T15:00:49;19.40;99.90
41592;DHT22;28026;48.562;14.440;2022-09-13T15:03:27;19.10;99.90
41592;DHT22;28026;48.562;14.440;2022-09-13T15:06:00;19.30;99.90
41592;DHT22;28026;48.562;14.440;2022-09-13T15:11:27;19.20;99.90
41592;DHT22;28026;48.562;14.440;2022-09-13T15:17:08;18.90;99.90
41592;DHT22;28026;48.562;14.440;2022-09-13T15:19:48;18.80;99.90
41592;DHT22;28026;48.562;14.440;2022-09-13T15:22:31;19.00;99.90
41592;DHT22;28026;48.562;14.440;2022-09-13T15:25:03;19.00;99.90
41592;DHT22;28026;48.562;14.440;2022-09-13T15:27:44;19.00;99.90
41592;DHT22;28026;48.562;14.440;2022-09-13T15:30:27;19.20;99.90
41592;DHT22;28026;48.562;14.440;2022-09-13T15:33:14;19.30;99.90
41592;DHT22;28026;48.562;14.440;2022-09-13T15:41:39;19.80;99.90
41592;DHT22;28026;48.562;14.440;2022-09-13T15:44:20;19.70;99.90
41592;DHT22;28026;48.562;14.440;2022-09-13T15:46:58;19.70;99.90
41592;DHT22;28026;48.562;14.440;2022-09-13T15:49:34;19.80;99.90
41592;DHT22;28026;48.562;14.440;2022-09-13T15:52:10;19.60;99.90
41592;DHT22;28026;48.562;14.440;2022-09-13T15:54:41;19.80;99.90
41592;DHT22;28026;48.562;14.440;2022-09-13T15:57:15;19.90;99.90
41592;DHT22;28026;48.562;14.440;2022-09-13T15:59:56;19.90;99.90
41592;DHT22;28026;48.562;14.440;2022-09-13T16:02:30;19.90;99.90
41592;DHT22;28026;48.562;14.440;2022-09-13T16:05:02;19.90;99.90
41592;DHT22;28026;48.562;14.440;2022-09-13T16:07:33;19.90;99.90
41592;DHT22;28026;48.562;14.440;2022-09-13T16:10:20;19.80;99.90
41592;DHT22;28026;48.562;14.440;2022-09-13T16:12:52;19.70;99.90
41592;DHT22;28026;48.562;14.440;2022-09-13T16:15:24;19.70;99.90
41592;DHT22;28026;48.562;14.440;2022-09-13T16:17:54;19.70;99.90
41592;DHT22;28026;48.562;14.440;2022-09-13T16:20:25;19.60;99.90
41592;DHT22;28026;48.562;14.440;2022-09-13T16:22:57;19.60;99.90
41592;DHT22;28026;48.562;14.440;2022-09-13T16:25:27;19.50;99.90
41592;DHT22;28026;48.562;14.440;2022-09-13T16:27:59;19.40;99.90
41592;DHT22;28026;48.562;14.440;2022-09-13T16:30:30;19.50;99.90
41592;DHT22;28026;48.562;14.440;2022-09-13T16:33:02;19.50;99.90
41592;DHT22;28026;48.562;14.440;2022-09-13T16:35:33;19.40;99.90
41592;DHT22;28026;48.562;14.440;2022-09-13T16:38:04;19.40;99.90
41592;DHT22;28026;48.562;14.440;2022-09-13T16:40:37;19.30;99.90
41592;DHT22;28026;48.562;14.440;2022-09-13T16:43:12;19.20;99.90
41592;DHT22;28026;48.562;14.440;2022-09-13T16:45:42;19.20;99.90
41592;DHT22;28026;48.562;14.440;2022-09-13T16:48:14;19.00;99.90
41592;DHT22;28026;48.562;14.440;2022-09-13T16:50:45;19.00;99.90
41592;DHT22;28026;48.562;14.440;2022-09-13T16:53:16;19.00;99.90
41592;DHT22;28026;48.562;14.440;2022-09-13T16:55:47;19.00;99.90
41592;DHT22;28026;48.562;14.440;2022-09-13T16:58:18;18.90;99.90
41592;DHT22;28026;48.562;14.440;2022-09-13T17:00:49;18.90;99.90
41592;DHT22;28026;48.562;14.440;2022-09-13T17:03:20;18.90;99.90
41592;DHT22;28026;48.562;14.440;2022-09-13T17:06:00;18.80;99.90
41592;DHT22;28026;48.562;14.440;2022-09-13T17:08:37;18.60;99.90
41592;DHT22;28026;48.562;14.440;2022-09-13T17:11:11;18.50;99.90
41592;DHT22;28026;48.562;14.440;2022-09-13T17:13:44;18.60;99.90
41592;DHT22;28026;48.562;14.440;2022-09-13T17:16:20;18.60;99.90
41592;DHT22;28026;48.562;14.440;2022-09-13T17:19:02;18.50;99.90
41592;DHT22;28026;48.562;14.440;2022-09-13T17:21:37;18.50;99.90
41592;DHT22;28026;48.562;14.440;2022-09-13T17:24:09;18.50;99.90
41592;DHT22;28026;48.562;14.440;2022-09-13T17:26:40;18.60;99.90
41592;DHT22;28026;48.562;14.440;2022-09-13T17:29:12;18.60;99.90
41592;DHT22;28026;48.562;14.440;2022-09-13T17:31:44;18.60;99.90
41592;DHT22;28026;48.562;14.440;2022-09-13T17:34:15;18.50;99.90
41592;DHT22;28026;48.562;14.440;2022-09-13T17:36:46;18.50;99.90
41592;DHT22;28026;48.562;14.440;2022-09-13T17:39:17;18.50;99.90
41592;DHT22;28026;48.562;14.440;2022-09-13T17:41:49;18.40;99.90
41592;DHT22;28026;48.562;14.440;2022-09-13T17:44:20;18.50;99.90
41592;DHT22;28026;48.562;14.440;2022-09-13T17:46:51;18.50;99.90
41592;DHT22;28026;48.562;14.440;2022-09-13T17:49:22;18.50;99.90
41592;DHT22;28026;48.562;14.440;2022-09-13T17:51:53;18.50;99.90
41592;DHT22;28026;48.562;14.440;2022-09-13T17:54:24;18.30;99.90
41592;DHT22;28026;48.562;14.440;2022-09-13T17:56:55;18.30;99.90
41592;DHT22;28026;48.562;14.440;2022-09-13T17:59:26;18.30;99.90
41592;DHT22;28026;48.562;14.440;2022-09-13T18:01:57;18.20;99.90
41592;DHT22;28026;48.562;14.440;2022-09-13T18:04:30;18.20;99.90
41592;DHT22;28026;48.562;14.440;2022-09-13T18:07:00;18.30;99.90
41592;DHT22;28026;48.562;14.440;2022-09-13T18:09:31;18.30;99.90
41592;DHT22;28026;48.562;14.440;2022-09-13T18:12:02;18.40;99.90
41592;DHT22;28026;48.562;14.440;2022-09-13T18:14:33;18.40;99.90
41592;DHT22;28026;48.562;14.440;2022-09-13T18:17:04;18.40;99.90
41592;DHT22;28026;48.562;14.440;2022-09-13T18:19:42;18.40;99.90
41592;DHT22;28026;48.562;14.440;2022-09-13T18:22:13;18.40;99.90
41592;DHT22;28026;48.562;14.440;2022-09-13T18:24:44;18.30;99.90
41592;DHT22;28026;48.562;14.440;2022-09-13T18:27:15;18.20;99.90
41592;DHT22;28026;48.562;14.440;2022-09-13T18:29:46;18.10;99.90
41592;DHT22;28026;48.562;14.440;2022-09-13T18:32:17;18.00;99.90
41592;DHT22;28026;48.562;14.440;2022-09-13T18:34:48;18.00;99.90
41592;DHT22;28026;48.562;14.440;2022-09-13T18:37:19;18.00;99.90
41592;DHT22;28026;48.562;14.440;2022-09-13T18:39:49;18.10;99.90
41592;DHT22;28026;48.562;14.440;2022-09-13T18:42:20;18.10;99.90
41592;DHT22;28026;48.562;14.440;2022-09-13T18:44:51;18.00;99.90
41592;DHT22;28026;48.562;14.440;2022-09-13T18:47:22;18.00;99.90
41592;DHT22;28026;48.562;14.440;2022-09-13T18:49:53;18.00;99.90
41592;DHT22;28026;48.562;14.440;2022-09-13T18:52:25;17.90;99.90
41592;DHT22;28026;48.562;14.440;2022-09-13T18:54:56;17.90;99.90
41592;DHT22;28026;48.562;14.440;2022-09-13T18:57:26;17.90;99.90
41592;DHT22;28026;48.562;14.440;2022-09-13T18:59:57;17.80;99.90
41592;DHT22;28026;48.562;14.440;2022-09-13T19:02:28;17.90;99.90
41592;DHT22;28026;48.562;14.440;2022-09-13T19:05:00;17.80;99.90
41592;DHT22;28026;48.562;14.440;2022-09-13T19:07:31;17.70;99.90
41592;DHT22;28026;48.562;14.440;2022-09-13T19:10:01;17.70;99.90
41592;DHT22;28026;48.562;14.440;2022-09-13T19:12:32;17.60;99.90
41592;DHT22;28026;48.562;14.440;2022-09-13T19:15:03;17.60;99.90
41592;DHT22;28026;48.562;14.440;2022-09-13T19:17:35;17.50;99.90
41592;DHT22;28026;48.562;14.440;2022-09-13T19:20:06;17.40;99.90
41592;DHT22;28026;48.562;14.440;2022-09-13T19:22:37;17.40;99.90
41592;DHT22;28026;48.562;14.440;2022-09-13T19:25:08;17.30;99.90
41592;DHT22;28026;48.562;14.440;2022-09-13T19:27:39;17.30;99.90
41592;DHT22;28026;48.562;14.440;2022-09-13T19:30:10;17.20;99.90
41592;DHT22;28026;48.562;14.440;2022-09-13T19:32:42;17.20;99.90
41592;DHT22;28026;48.562;14.440;2022-09-13T19:35:13;17.30;99.90
41592;DHT22;28026;48.562;14.440;2022-09-13T19:37:44;17.40;99.90
41592;DHT22;28026;48.562;14.440;2022-09-13T19:40:15;17.40;99.90
41592;DHT22;28026;48.562;14.440;2022-09-13T19:42:46;17.40;99.90
41592;DHT22;28026;48.562;14.440;2022-09-13T19:45:16;17.40;99.90
41592;DHT22;28026;48.562;14.440;2022-09-13T19:47:47;17.40;99.90
41592;DHT22;28026;48.562;14.440;2022-09-13T19:50:20;17.40;99.90
41592;DHT22;28026;48.562;14.440;2022-09-13T19:52:51;17.30;99.90
41592;DHT22;28026;48.562;14.440;2022-09-13T19:55:22;17.20;99.90
41592;DHT22;28026;48.562;14.440;2022-09-13T19:57:53;17.20;99.90